createdAt,value
2019-03-30T00:01:25.989Z,65.25
2019-03-30T00:03:54.466Z,65.50
2019-03-30T00:06:22.963Z,65.58
2019-03-30T00:08:51.434Z,65.49
2019-03-30T00:11:19.897Z,65.63
2019-03-30T00:13:48.659Z,65.62
2019-03-30T00:16:17.075Z,65.38
2019-03-30T00:18:45.955Z,65.39
2019-03-30T00:21:14.449Z,65.91
2019-03-30T00:23:42.869Z,67.21
2019-03-30T00:26:11.399Z,66.66
2019-03-30T00:28:39.831Z,67.01
2019-03-30T00:31:08.291Z,67.37
2019-03-30T00:33:36.777Z,67.79
2019-03-30T00:36:05.386Z,67.94
2019-03-30T00:38:33.946Z,68.67
2019-03-30T00:41:02.481Z,68.71
2019-03-30T00:43:30.940Z,68.93
2019-03-30T00:45:59.400Z,69.23
2019-03-30T00:48:27.917Z,69.17
2019-03-30T00:50:56.417Z,69.05
2019-03-30T00:53:24.914Z,69.46
2019-03-30T00:55:53.422Z,69.62
2019-03-30T00:58:21.871Z,70.65
2019-03-30T01:00:50.437Z,69.61
2019-03-30T01:03:18.871Z,69.29
2019-03-30T01:05:47.322Z,69.10
2019-03-30T01:08:15.875Z,69.00
2019-03-30T01:10:44.336Z,69.48
2019-03-30T01:13:12.829Z,69.62
2019-03-30T01:15:41.287Z,69.59
2019-03-30T01:18:09.782Z,69.63
2019-03-30T01:20:38.208Z,70.92
2019-03-30T01:23:06.680Z,71.44
2019-03-30T01:25:35.186Z,70.83
2019-03-30T01:28:03.720Z,71.18
2019-03-30T01:30:32.140Z,70.43
2019-03-30T01:33:00.563Z,71.01
2019-03-30T01:35:29.233Z,72.70
2019-03-30T01:37:57.848Z,75.05
2019-03-30T01:40:26.272Z,75.08
2019-03-30T01:42:54.692Z,73.47
2019-03-30T01:45:23.334Z,73.38
2019-03-30T01:47:51.769Z,73.43
2019-03-30T01:50:20.584Z,72.70
2019-03-30T01:52:49.078Z,72.66
2019-03-30T01:55:17.562Z,72.86
2019-03-30T01:57:46.008Z,71.98
2019-03-30T02:00:15.775Z,71.64
2019-03-30T02:02:44.426Z,74.85
2019-03-30T02:05:12.942Z,75.48
2019-03-30T02:07:41.373Z,76.62
2019-03-30T02:10:11.269Z,78.09
2019-03-30T02:12:39.926Z,78.42
2019-03-30T02:15:10.147Z,77.85
2019-03-30T02:17:38.590Z,78.03
2019-03-30T02:20:07.990Z,79.97
2019-03-30T02:22:36.516Z,79.89
2019-03-30T02:25:07.138Z,79.65
2019-03-30T02:27:35.668Z,80.65
2019-03-30T02:30:06.554Z,80.88
2019-03-30T02:32:34.997Z,80.88
2019-03-30T02:35:04.589Z,80.42
2019-03-30T02:37:33.044Z,80.78
2019-03-30T02:40:01.467Z,79.94
2019-03-30T02:42:29.960Z,79.06
2019-03-30T02:44:58.434Z,78.02
2019-03-30T02:47:26.932Z,76.89
2019-03-30T02:49:55.412Z,76.66
2019-03-30T02:52:23.805Z,75.84
2019-03-30T02:54:52.228Z,78.48
2019-03-30T02:57:20.673Z,77.54
2019-03-30T02:59:49.124Z,78.73
2019-03-30T03:02:17.540Z,79.88
2019-03-30T03:04:46.033Z,81.07
2019-03-30T03:07:14.562Z,80.47
2019-03-30T03:09:42.982Z,79.43
2019-03-30T03:12:11.499Z,79.83
2019-03-30T03:14:39.921Z,79.29
2019-03-30T03:17:08.375Z,79.59
2019-03-30T03:19:36.789Z,78.67
2019-03-30T03:22:05.237Z,78.12
2019-03-30T03:24:33.781Z,77.85
2019-03-30T03:27:02.273Z,77.38
2019-03-30T03:29:30.736Z,77.20
2019-03-30T03:31:59.274Z,76.97
2019-03-30T03:34:27.784Z,77.89
2019-03-30T03:36:56.206Z,78.70
2019-03-30T03:39:24.662Z,77.53
2019-03-30T03:41:53.153Z,77.58
2019-03-30T03:44:21.685Z,80.28
2019-03-30T03:46:50.108Z,81.82
2019-03-30T03:49:18.531Z,82.13
2019-03-30T03:51:47.048Z,81.23
2019-03-30T03:54:16.005Z,81.12
2019-03-30T03:56:47.771Z,81.12
2019-03-30T03:59:17.282Z,80.62
2019-03-30T04:01:47.624Z,80.26
2019-03-30T04:04:18.213Z,81.36
2019-03-30T04:06:49.744Z,81.54
2019-03-30T04:09:19.894Z,80.70
2019-03-30T04:11:49.793Z,80.50
2019-03-30T04:14:20.734Z,79.97
2019-03-30T04:16:49.328Z,79.26
2019-03-30T04:19:17.770Z,78.67
2019-03-30T04:21:46.223Z,79.31
2019-03-30T04:24:14.645Z,79.02
2019-03-30T04:26:43.060Z,78.27
2019-03-30T04:29:11.603Z,78.15
2019-03-30T04:31:40.143Z,78.76
2019-03-30T04:34:08.579Z,79.84
2019-03-30T04:36:36.993Z,81.46
2019-03-30T04:39:06.205Z,81.31
2019-03-30T04:41:34.652Z,81.58
2019-03-30T04:44:03.141Z,81.64
2019-03-30T04:46:31.558Z,80.98
2019-03-30T04:48:59.983Z,81.02
2019-03-30T04:51:28.450Z,81.58
2019-03-30T04:53:56.874Z,80.76
2019-03-30T04:56:25.335Z,80.90
2019-03-30T04:58:53.792Z,81.74
2019-03-30T05:01:22.237Z,82.18
2019-03-30T05:03:50.720Z,80.88
2019-03-30T05:06:19.140Z,80.58
2019-03-30T05:08:47.574Z,79.39
2019-03-30T05:11:16.030Z,78.87
2019-03-30T05:13:44.485Z,78.45
2019-03-30T05:16:13.026Z,78.36
2019-03-30T05:18:41.480Z,78.42
2019-03-30T05:21:09.893Z,78.41
2019-03-30T05:23:38.308Z,78.38
2019-03-30T05:26:06.779Z,78.07
2019-03-30T05:28:35.186Z,77.81
2019-03-30T05:31:03.649Z,79.90
2019-03-30T05:33:32.073Z,80.50
2019-03-30T05:36:00.621Z,80.67
2019-03-30T05:38:29.072Z,80.15
2019-03-30T05:40:57.488Z,79.24
2019-03-30T05:43:25.938Z,78.73
2019-03-30T05:45:54.370Z,78.18
2019-03-30T05:48:22.829Z,77.92
2019-03-30T05:50:51.244Z,75.81
2019-03-30T05:53:19.698Z,74.66
2019-03-30T05:55:48.214Z,73.25
2019-03-30T05:58:16.644Z,72.96
2019-03-30T06:00:45.093Z,71.91
2019-03-30T06:03:13.535Z,71.75
2019-03-30T06:05:42.015Z,71.51
2019-03-30T06:08:10.439Z,70.92
2019-03-30T06:10:39.120Z,70.33
2019-03-30T06:13:07.718Z,69.49
2019-03-30T06:15:37.117Z,68.79
2019-03-30T06:18:05.582Z,67.70
2019-03-30T06:20:33.995Z,67.68
2019-03-30T06:23:02.447Z,66.44
2019-03-30T06:25:30.978Z,66.22
2019-03-30T06:27:59.445Z,65.46
2019-03-30T06:30:28.509Z,65.06
2019-03-30T06:32:56.953Z,63.87
2019-03-30T06:35:25.383Z,63.47
2019-03-30T06:37:53.884Z,63.04
2019-03-30T06:40:22.568Z,61.81
2019-03-30T06:42:51.007Z,61.19
2019-03-30T06:45:19.624Z,60.92
2019-03-30T06:47:48.046Z,60.34
2019-03-30T06:50:18.204Z,60.75
2019-03-30T06:52:57.506Z,60.37
2019-03-30T06:55:17.142Z,60.25
2019-03-30T06:57:45.671Z,59.17
2019-03-30T07:00:14.645Z,58.04
2019-03-30T07:02:43.425Z,57.64
2019-03-30T07:05:11.968Z,57.04
2019-03-30T07:07:42.122Z,56.86
2019-03-30T07:10:10.873Z,55.64
2019-03-30T07:12:41.042Z,53.53
2019-03-30T07:15:10.279Z,53.01
2019-03-30T07:17:41.789Z,52.11
2019-03-30T07:20:13.277Z,51.31
2019-03-30T07:22:41.704Z,50.95
2019-03-30T07:25:10.298Z,50.06
2019-03-30T07:27:38.716Z,48.05
2019-03-30T07:30:09.294Z,47.05
2019-03-30T07:32:37.720Z,45.83
2019-03-30T07:35:06.918Z,44.82
2019-03-30T07:37:35.375Z,43.30
2019-03-30T07:40:06.428Z,41.79
2019-03-30T07:42:34.858Z,40.00
2019-03-30T07:45:04.670Z,38.12
2019-03-30T07:47:33.088Z,36.88
2019-03-30T07:50:01.618Z,36.35
2019-03-30T07:52:30.114Z,35.79
2019-03-30T07:54:58.541Z,34.95
2019-03-30T07:57:26.970Z,34.05
2019-03-30T07:59:55.458Z,32.20
2019-03-30T08:02:23.979Z,32.38
2019-03-30T08:04:52.434Z,31.87
2019-03-30T08:07:20.951Z,30.72
2019-03-30T08:09:49.406Z,30.07
2019-03-30T08:12:17.937Z,28.94
2019-03-30T08:14:46.467Z,28.33
2019-03-30T08:17:14.991Z,27.11
2019-03-30T08:19:43.453Z,27.45
2019-03-30T08:22:11.938Z,27.45
2019-03-30T08:24:40.364Z,27.03
2019-03-30T08:27:08.813Z,26.24
2019-03-30T08:29:37.354Z,25.88
2019-03-30T08:32:05.967Z,25.25
2019-03-30T08:34:34.582Z,23.95
2019-03-30T08:37:03.008Z,24.32
2019-03-30T08:39:31.476Z,22.35
2019-03-30T08:41:59.905Z,22.86
2019-03-30T08:44:28.340Z,22.50
2019-03-30T08:46:56.847Z,21.20
2019-03-30T08:49:25.298Z,19.75
2019-03-30T08:51:53.749Z,18.84
2019-03-30T08:54:22.207Z,19.94
2019-03-30T08:56:50.732Z,20.08
2019-03-30T08:59:19.224Z,19.09
2019-03-30T09:01:47.679Z,19.17
2019-03-30T09:04:16.125Z,18.37
2019-03-30T09:06:44.844Z,18.26
2019-03-30T09:09:13.433Z,17.86
2019-03-30T09:11:43.580Z,18.09
2019-03-30T09:14:12.051Z,17.07
2019-03-30T09:16:41.473Z,16.57
2019-03-30T09:19:09.935Z,16.27
2019-03-30T09:21:38.367Z,15.06
2019-03-30T09:24:09.866Z,14.58
2019-03-30T09:26:37.069Z,13.98
2019-03-30T09:29:05.569Z,14.23
2019-03-30T09:31:34.333Z,14.90
2019-03-30T09:34:02.764Z,14.29
2019-03-30T09:36:31.237Z,12.83
2019-03-30T09:38:59.658Z,12.62
2019-03-30T09:41:28.247Z,12.06
2019-03-30T09:43:56.705Z,12.31
2019-03-30T09:46:25.160Z,11.66
2019-03-30T09:48:53.574Z,11.10
2019-03-30T09:51:22.076Z,11.47
2019-03-30T09:53:50.609Z,12.52
2019-03-30T09:56:19.036Z,12.35
2019-03-30T09:58:47.553Z,9.52
2019-03-30T10:01:16.064Z,10.49
2019-03-30T10:03:44.583Z,10.70
2019-03-30T10:06:13.130Z,11.05
2019-03-30T10:08:41.580Z,9.78
2019-03-30T10:11:10.069Z,10.38
2019-03-30T10:13:38.523Z,9.62
2019-03-30T10:16:06.938Z,9.53
2019-03-30T10:18:35.380Z,8.45
2019-03-30T10:21:03.919Z,8.57
2019-03-30T10:23:32.331Z,9.50
2019-03-30T10:26:01.121Z,9.19
2019-03-30T10:28:29.534Z,9.09
2019-03-30T10:30:58.033Z,10.42
2019-03-30T10:33:26.431Z,10.58
2019-03-30T10:35:54.875Z,9.72
2019-03-30T10:38:23.318Z,8.75
2019-03-30T10:40:51.774Z,8.78
2019-03-30T10:43:20.193Z,9.13
2019-03-30T10:45:48.641Z,9.86
2019-03-30T10:48:17.082Z,8.72
2019-03-30T10:50:45.558Z,9.27
2019-03-30T10:53:14.009Z,10.81
2019-03-30T10:55:42.427Z,10.55
2019-03-30T10:58:10.943Z,9.80
2019-03-30T11:00:40.650Z,9.38
2019-03-30T11:03:09.222Z,9.29
2019-03-30T11:05:37.748Z,8.97
2019-03-30T11:08:06.367Z,9.15
2019-03-30T11:10:34.933Z,9.04
2019-03-30T11:13:03.460Z,9.93
2019-03-30T11:15:34.104Z,8.77
2019-03-30T11:18:02.297Z,9.20
2019-03-30T11:20:30.963Z,9.71
2019-03-30T11:22:59.457Z,9.50
2019-03-30T11:25:28.003Z,8.72
2019-03-30T11:27:56.418Z,9.57
2019-03-30T11:30:24.981Z,11.43
2019-03-30T11:32:53.529Z,11.08
2019-03-30T11:35:22.036Z,11.29
2019-03-30T11:37:51.314Z,12.28
2019-03-30T11:40:19.840Z,12.14
2019-03-30T11:42:48.248Z,11.94
2019-03-30T11:45:16.876Z,13.70
2019-03-30T11:47:45.308Z,13.38
2019-03-30T11:50:14.129Z,13.36
2019-03-30T11:52:42.565Z,13.43
2019-03-30T11:55:21.838Z,13.45
2019-03-30T11:57:41.447Z,13.07
2019-03-30T12:00:10.495Z,13.74
2019-03-30T12:02:39.072Z,14.14
2019-03-30T12:05:08.735Z,13.97
2019-03-30T12:07:37.830Z,13.63
2019-03-30T12:10:09.166Z,14.06
2019-03-30T12:12:37.791Z,14.40
2019-03-30T12:15:07.491Z,15.42
2019-03-30T12:17:35.921Z,14.25
2019-03-30T12:20:06.663Z,14.49
2019-03-30T12:22:35.088Z,15.06
2019-03-30T12:25:03.697Z,15.42
2019-03-30T12:27:32.211Z,15.56
2019-03-30T12:30:00.764Z,16.07
2019-03-30T12:32:29.192Z,15.95
2019-03-30T12:34:57.764Z,16.13
2019-03-30T12:37:26.285Z,15.87
2019-03-30T12:39:58.060Z,15.71
2019-03-30T12:42:25.047Z,15.45
2019-03-30T12:44:53.487Z,15.45
2019-03-30T12:47:22.007Z,16.09
2019-03-30T12:49:50.437Z,16.64
2019-03-30T12:52:18.875Z,16.85
2019-03-30T12:54:47.297Z,16.48
2019-03-30T12:57:15.792Z,16.97
2019-03-30T12:59:44.220Z,16.65
2019-03-30T13:02:12.703Z,16.66
2019-03-30T13:04:41.154Z,16.93
2019-03-30T13:07:09.587Z,16.67
2019-03-30T13:09:38.031Z,17.31
2019-03-30T13:12:06.480Z,17.79
2019-03-30T13:14:34.900Z,17.63
2019-03-30T13:17:03.359Z,18.69
2019-03-30T13:19:31.793Z,18.52
2019-03-30T13:22:00.215Z,17.17
2019-03-30T13:24:28.667Z,18.05
2019-03-30T13:26:57.128Z,18.40
2019-03-30T13:29:25.616Z,18.27
2019-03-30T13:31:54.026Z,17.42
2019-03-30T13:34:22.557Z,18.49
2019-03-30T13:36:50.977Z,17.92
2019-03-30T13:39:19.403Z,17.93
2019-03-30T13:41:47.937Z,18.12
2019-03-30T13:44:16.422Z,18.00
2019-03-30T13:46:44.842Z,18.57
2019-03-30T13:49:13.289Z,18.46
2019-03-30T13:51:41.709Z,17.91
2019-03-30T13:54:10.383Z,17.69
2019-03-30T13:56:38.981Z,18.54
2019-03-30T13:59:07.440Z,18.02
2019-03-30T14:01:35.941Z,18.58
2019-03-30T14:04:04.510Z,19.33
2019-03-30T14:06:33.022Z,18.46
2019-03-30T14:09:01.507Z,18.99
2019-03-30T14:11:29.996Z,18.35
2019-03-30T14:13:58.411Z,19.23
2019-03-30T14:16:26.841Z,19.22
2019-03-30T14:18:55.298Z,20.39
2019-03-30T14:21:23.726Z,19.37
2019-03-30T14:23:52.188Z,19.15
2019-03-30T14:26:30.785Z,19.75
2019-03-30T14:28:50.776Z,19.81
2019-03-30T14:31:19.219Z,19.40
2019-03-30T14:33:47.686Z,20.20
2019-03-30T14:36:16.150Z,19.77
2019-03-30T14:38:44.593Z,19.56
2019-03-30T14:41:13.143Z,19.94
2019-03-30T14:43:41.595Z,19.77
2019-03-30T14:46:10.040Z,20.22
2019-03-30T14:48:38.457Z,20.07
2019-03-30T14:51:06.950Z,19.83
2019-03-30T14:53:35.539Z,19.94
2019-03-30T14:56:04.125Z,19.86
2019-03-30T14:58:32.637Z,20.33
2019-03-30T15:01:03.195Z,20.64
2019-03-30T15:03:31.310Z,20.30
2019-03-30T15:05:59.753Z,20.63
2019-03-30T15:08:28.197Z,20.62
2019-03-30T15:10:56.818Z,22.09
2019-03-30T15:13:25.241Z,21.22
2019-03-30T15:15:53.767Z,20.56
2019-03-30T15:18:22.382Z,20.91
2019-03-30T15:20:50.832Z,21.29
2019-03-30T15:23:19.363Z,21.16
2019-03-30T15:25:48.188Z,20.71
2019-03-30T15:28:16.610Z,21.29
2019-03-30T15:30:45.040Z,21.52
2019-03-30T15:33:13.490Z,21.26
2019-03-30T15:35:41.908Z,21.19
2019-03-30T15:38:10.361Z,22.25
2019-03-30T15:40:38.790Z,21.10
2019-03-30T15:43:07.288Z,20.85
2019-03-30T15:45:35.749Z,22.29
2019-03-30T15:48:04.292Z,22.41
2019-03-30T15:50:32.734Z,22.19
2019-03-30T15:53:01.207Z,21.85
2019-03-30T15:55:29.640Z,22.09
2019-03-30T15:57:58.205Z,22.30
2019-03-30T16:00:26.664Z,23.13
2019-03-30T16:02:55.254Z,22.30
2019-03-30T16:05:23.772Z,22.63
2019-03-30T16:07:52.331Z,22.88
2019-03-30T16:10:21.055Z,22.33
2019-03-30T16:12:49.534Z,22.89
2019-03-30T16:15:18.031Z,23.38
2019-03-30T16:17:46.484Z,23.61
2019-03-30T16:20:15.659Z,22.90
2019-03-30T16:22:44.890Z,22.91
2019-03-30T16:25:13.261Z,22.67
2019-03-30T16:27:41.878Z,22.58
2019-03-30T16:30:11.297Z,23.21
2019-03-30T16:32:39.819Z,23.35
2019-03-30T16:35:09.529Z,23.23
2019-03-30T16:37:38.048Z,24.18
2019-03-30T16:40:07.332Z,24.17
2019-03-30T16:42:36.355Z,24.47
2019-03-30T16:45:06.410Z,23.92
2019-03-30T16:47:34.869Z,23.93
2019-03-30T16:50:03.668Z,24.51
2019-03-30T16:52:32.154Z,24.82
2019-03-30T16:55:00.657Z,25.06
2019-03-30T16:57:42.629Z,24.04
2019-03-30T16:59:59.414Z,24.01
2019-03-30T17:02:27.843Z,24.60
2019-03-30T17:04:56.551Z,24.20
2019-03-30T17:07:24.978Z,24.69
2019-03-30T17:09:53.415Z,25.09
2019-03-30T17:12:21.891Z,25.18
2019-03-30T17:14:50.612Z,24.92
2019-03-30T17:17:19.037Z,25.41
2019-03-30T17:19:47.484Z,25.92
2019-03-30T17:22:15.917Z,25.70
2019-03-30T17:24:44.378Z,25.83
2019-03-30T17:27:12.871Z,26.11
2019-03-30T17:29:41.294Z,26.11
2019-03-30T17:32:09.839Z,26.28
2019-03-30T17:34:38.363Z,26.55
2019-03-30T17:37:06.924Z,26.41
2019-03-30T17:39:35.445Z,26.89
2019-03-30T17:42:04.008Z,26.89
2019-03-30T17:44:32.713Z,26.93
2019-03-30T17:47:01.165Z,27.56
2019-03-30T17:49:29.590Z,26.87
2019-03-30T17:51:58.023Z,27.29
2019-03-30T17:54:26.475Z,28.25
2019-03-30T17:56:54.940Z,30.63
2019-03-30T17:59:23.948Z,31.35
2019-03-30T18:01:52.594Z,31.78
2019-03-30T18:04:21.062Z,32.29
2019-03-30T18:06:49.639Z,32.33
2019-03-30T18:09:18.082Z,32.52
2019-03-30T18:11:46.596Z,32.71
2019-03-30T18:14:15.056Z,33.41
2019-03-30T18:16:43.575Z,33.96
2019-03-30T18:19:12.088Z,34.46
2019-03-30T18:21:40.615Z,35.32
2019-03-30T18:24:09.038Z,35.37
2019-03-30T18:26:37.555Z,35.81
2019-03-30T18:29:06.089Z,36.57
2019-03-30T18:31:34.933Z,36.30
2019-03-30T18:34:03.512Z,36.76
2019-03-30T18:36:33.706Z,37.27
2019-03-30T18:39:09.836Z,38.02
2019-03-30T18:41:33.923Z,37.90
2019-03-30T18:44:02.890Z,38.87
2019-03-30T18:46:31.440Z,38.76
2019-03-30T18:49:00.038Z,39.18
2019-03-30T18:51:28.705Z,39.44
2019-03-30T18:53:57.466Z,39.99
2019-03-30T18:56:27.958Z,40.16
2019-03-30T18:58:56.063Z,40.18
2019-03-30T19:01:24.521Z,40.00
2019-03-30T19:03:52.944Z,40.29
2019-03-30T19:06:21.491Z,40.33
2019-03-30T19:08:49.970Z,40.09
2019-03-30T19:11:18.502Z,39.97
2019-03-30T19:13:47.078Z,40.27
2019-03-30T19:16:15.802Z,40.25
2019-03-30T19:18:44.296Z,40.89
2019-03-30T19:21:12.867Z,41.12
2019-03-30T19:23:41.379Z,41.74
2019-03-30T19:26:09.859Z,42.22
2019-03-30T19:28:38.295Z,42.05
2019-03-30T19:31:06.798Z,41.91
2019-03-30T19:33:35.282Z,42.92
2019-03-30T19:36:03.839Z,41.94
2019-03-30T19:38:32.311Z,42.79
2019-03-30T19:41:01.600Z,43.31
2019-03-30T19:43:30.029Z,44.39
2019-03-30T19:45:58.454Z,45.64
2019-03-30T19:48:26.919Z,45.99
2019-03-30T19:50:55.405Z,46.84
2019-03-30T19:53:23.842Z,46.82
2019-03-30T19:55:52.464Z,47.00
2019-03-30T19:58:21.022Z,47.74
2019-03-30T20:00:49.705Z,48.54
2019-03-30T20:03:18.154Z,48.44
2019-03-30T20:05:46.645Z,49.25
2019-03-30T20:08:15.097Z,50.22
2019-03-30T20:10:43.539Z,49.93
2019-03-30T20:13:12.083Z,50.10
2019-03-30T20:15:40.681Z,49.54
2019-03-30T20:18:09.257Z,49.06
2019-03-30T20:20:37.717Z,49.02
2019-03-30T20:23:06.254Z,48.10
2019-03-30T20:25:34.713Z,48.31
2019-03-30T20:28:03.182Z,48.14
2019-03-30T20:30:31.774Z,48.02
2019-03-30T20:33:00.282Z,48.21
2019-03-30T20:35:28.732Z,48.31
2019-03-30T20:37:57.266Z,49.02
2019-03-30T20:40:25.983Z,49.06
2019-03-30T20:42:54.404Z,49.57
2019-03-30T20:45:22.851Z,49.98
2019-03-30T20:47:51.310Z,50.09
2019-03-30T20:50:19.813Z,50.20
2019-03-30T20:52:48.297Z,50.42
2019-03-30T20:55:16.787Z,50.24
2019-03-30T20:57:45.253Z,50.79
2019-03-30T21:00:14.696Z,51.97
2019-03-30T21:02:43.188Z,52.37
2019-03-30T21:05:12.006Z,52.91
2019-03-30T21:07:41.920Z,54.30
2019-03-30T21:10:11.625Z,54.47
2019-03-30T21:12:40.094Z,54.60
2019-03-30T21:15:08.685Z,54.76
2019-03-30T21:17:37.123Z,54.44
2019-03-30T21:20:08.857Z,54.72
2019-03-30T21:22:37.638Z,54.36
2019-03-30T21:25:06.616Z,54.90
2019-03-30T21:27:35.091Z,55.20
2019-03-30T21:30:05.621Z,55.07
2019-03-30T21:32:34.065Z,54.86
2019-03-30T21:35:02.698Z,54.98
2019-03-30T21:37:31.120Z,54.82
2019-03-30T21:39:59.556Z,54.74
2019-03-30T21:42:28.031Z,54.22
2019-03-30T21:44:56.447Z,54.15
2019-03-30T21:47:24.897Z,54.52
2019-03-30T21:49:53.373Z,55.03
2019-03-30T21:52:21.795Z,55.65
2019-03-30T21:54:50.254Z,55.96
2019-03-30T21:57:18.758Z,55.24
2019-03-30T21:59:47.281Z,54.81
2019-03-30T22:02:15.743Z,54.83
2019-03-30T22:04:44.262Z,54.98
2019-03-30T22:07:12.931Z,55.15
2019-03-30T22:09:41.497Z,57.58
2019-03-30T22:12:09.923Z,57.16
2019-03-30T22:14:38.537Z,58.07
2019-03-30T22:17:06.968Z,58.79
2019-03-30T22:19:35.528Z,59.01
2019-03-30T22:22:04.010Z,58.95
2019-03-30T22:24:32.513Z,58.79
2019-03-30T22:27:01.014Z,59.50
2019-03-30T22:29:29.444Z,59.70
2019-03-30T22:31:58.198Z,59.84
2019-03-30T22:34:26.688Z,59.30
2019-03-30T22:36:55.178Z,58.93
2019-03-30T22:39:23.700Z,58.40
2019-03-30T22:41:52.270Z,58.56
2019-03-30T22:44:20.852Z,58.82
2019-03-30T22:46:49.287Z,58.38
2019-03-30T22:49:17.833Z,59.55
2019-03-30T22:51:46.306Z,60.32
2019-03-30T22:54:14.772Z,60.25
2019-03-30T22:56:43.277Z,60.10
2019-03-30T22:59:11.716Z,59.36
2019-03-30T23:01:40.317Z,59.44
2019-03-30T23:04:08.865Z,59.64
2019-03-30T23:06:37.426Z,59.58
2019-03-30T23:09:06.606Z,59.48
2019-03-30T23:11:35.044Z,60.57
2019-03-30T23:14:03.644Z,60.65
2019-03-30T23:16:32.173Z,61.10
2019-03-30T23:19:00.630Z,61.43
2019-03-30T23:21:29.060Z,61.14
2019-03-30T23:23:57.480Z,61.39
2019-03-30T23:26:26.015Z,61.96
2019-03-30T23:28:54.449Z,62.12
2019-03-30T23:31:23.074Z,62.30
2019-03-30T23:33:51.530Z,61.98
2019-03-30T23:36:20.071Z,62.22
2019-03-30T23:38:48.499Z,62.37
2019-03-30T23:41:16.932Z,63.00
2019-03-30T23:43:45.386Z,63.13
2019-03-30T23:46:13.955Z,63.35
2019-03-30T23:48:42.387Z,63.37
2019-03-30T23:51:10.851Z,63.31
2019-03-30T23:53:39.266Z,63.46
2019-03-30T23:56:19.781Z,63.59
2019-03-30T23:58:48.447Z,63.07
